Terminal Aerodrome Forecast
Issued by NWS Austin/San Antonio, TX

Home | Current Version | Previous Version | Text Only | Print | Product List | Glossary On
Versions: 1 2 3 4 5 6 7 8 9 10 11 12 13 14 15
000
FTUS44 KEWX 281729
TAFDRT
TAF
KDRT 281729Z 2818/2918 13008KT P6SM SKC
     FM290400 11007G14KT P6SM SCT250
     FM291300 VRB06KT P6SM OVC100=

USA.gov is the U.S. government's official web portal to all federal, state and local government web resources and services.